sensor_id;sensor_type;location;lat;lon;timestamp;temperature;humidity
19864;DHT22;10094;48.820;9.226;2022-11-12T00:10:47;6.10;99.90
19864;DHT22;10094;48.820;9.226;2022-11-12T00:17:48;6.00;99.90
19864;DHT22;10094;48.820;9.226;2022-11-12T00:24:49;5.90;99.90
19864;DHT22;10094;48.820;9.226;2022-11-12T00:38:51;5.90;99.90
19864;DHT22;10094;48.820;9.226;2022-11-12T00:45:52;5.70;99.90
19864;DHT22;10094;48.820;9.226;2022-11-12T01:21:01;5.60;99.90
19864;DHT22;10094;48.820;9.226;2022-11-12T01:56:13;5.50;99.90
19864;DHT22;10094;48.820;9.226;2022-11-12T02:03:19;5.40;99.90
19864;DHT22;10094;48.820;9.226;2022-11-12T02:10:21;5.40;99.90
19864;DHT22;10094;48.820;9.226;2022-11-12T02:17:22;5.40;99.90
19864;DHT22;10094;48.820;9.226;2022-11-12T02:31:23;5.40;99.90
19864;DHT22;10094;48.820;9.226;2022-11-12T02:38:24;5.30;99.90
19864;DHT22;10094;48.820;9.226;2022-11-12T02:45:27;5.20;99.90
19864;DHT22;10094;48.820;9.226;2022-11-12T02:52:28;5.20;99.90
19864;DHT22;10094;48.820;9.226;2022-11-12T02:59:29;5.30;99.90
19864;DHT22;10094;48.820;9.226;2022-11-12T03:06:30;5.20;99.90
19864;DHT22;10094;48.820;9.226;2022-11-12T03:13:31;5.10;99.90
19864;DHT22;10094;48.820;9.226;2022-11-12T03:20:32;5.10;99.90
19864;DHT22;10094;48.820;9.226;2022-11-12T03:27:34;5.00;99.90
19864;DHT22;10094;48.820;9.226;2022-11-12T03:34:35;5.00;99.90
19864;DHT22;10094;48.820;9.226;2022-11-12T03:41:36;5.10;99.90
19864;DHT22;10094;48.820;9.226;2022-11-12T03:48:37;4.90;99.90
19864;DHT22;10094;48.820;9.226;2022-11-12T03:55:38;4.80;99.90
19864;DHT22;10094;48.820;9.226;2022-11-12T04:02:39;4.70;99.90
19864;DHT22;10094;48.820;9.226;2022-11-12T04:09:40;4.70;99.90
19864;DHT22;10094;48.820;9.226;2022-11-12T04:16:41;4.80;99.90
19864;DHT22;10094;48.820;9.226;2022-11-12T04:24:00;4.80;99.90
19864;DHT22;10094;48.820;9.226;2022-11-12T04:31:01;4.80;99.90
19864;DHT22;10094;48.820;9.226;2022-11-12T04:38:02;4.90;99.90
19864;DHT22;10094;48.820;9.226;2022-11-12T04:45:08;4.90;99.90
19864;DHT22;10094;48.820;9.226;2022-11-12T04:52:09;4.90;99.90
19864;DHT22;10094;48.820;9.226;2022-11-12T04:59:10;4.90;99.90
19864;DHT22;10094;48.820;9.226;2022-11-12T05:06:11;5.00;99.90
19864;DHT22;10094;48.820;9.226;2022-11-12T05:13:31;5.00;99.90
19864;DHT22;10094;48.820;9.226;2022-11-12T05:20:32;5.00;99.90
19864;DHT22;10094;48.820;9.226;2022-11-12T05:27:34;5.00;99.90
19864;DHT22;10094;48.820;9.226;2022-11-12T05:34:35;5.10;99.90
19864;DHT22;10094;48.820;9.226;2022-11-12T05:41:36;5.10;99.90
19864;DHT22;10094;48.820;9.226;2022-11-12T05:48:57;5.00;99.90
19864;DHT22;10094;48.820;9.226;2022-11-12T05:56:02;4.90;99.90
19864;DHT22;10094;48.820;9.226;2022-11-12T06:03:04;4.90;99.90
19864;DHT22;10094;48.820;9.226;2022-11-12T06:10:05;4.80;99.90
19864;DHT22;10094;48.820;9.226;2022-11-12T06:17:08;4.80;99.90
19864;DHT22;10094;48.820;9.226;2022-11-12T06:24:11;4.70;99.90
19864;DHT22;10094;48.820;9.226;2022-11-12T06:31:12;4.70;99.90
19864;DHT22;10094;48.820;9.226;2022-11-12T06:38:13;4.60;99.90
19864;DHT22;10094;48.820;9.226;2022-11-12T06:45:15;4.60;99.90
19864;DHT22;10094;48.820;9.226;2022-11-12T06:52:16;4.70;99.90
19864;DHT22;10094;48.820;9.226;2022-11-12T06:59:17;4.70;99.90
19864;DHT22;10094;48.820;9.226;2022-11-12T07:06:19;4.80;99.90
19864;DHT22;10094;48.820;9.226;2022-11-12T07:13:20;5.00;99.90
19864;DHT22;10094;48.820;9.226;2022-11-12T07:20:21;5.20;99.90
19864;DHT22;10094;48.820;9.226;2022-11-12T07:27:22;5.60;99.90
19864;DHT22;10094;48.820;9.226;2022-11-12T07:34:23;5.80;99.90
19864;DHT22;10094;48.820;9.226;2022-11-12T07:41:24;5.80;99.90
19864;DHT22;10094;48.820;9.226;2022-11-12T07:48:26;5.90;99.90
19864;DHT22;10094;48.820;9.226;2022-11-12T07:55:28;7.70;99.90
19864;DHT22;10094;48.820;9.226;2022-11-12T08:02:29;8.40;99.90
19864;DHT22;10094;48.820;9.226;2022-11-12T08:09:30;10.90;99.90
19864;DHT22;10094;48.820;9.226;2022-11-12T08:16:30;12.00;99.90
19864;DHT22;10094;48.820;9.226;2022-11-12T08:23:31;10.60;99.90
19864;DHT22;10094;48.820;9.226;2022-11-12T08:30:32;9.70;99.90
19864;DHT22;10094;48.820;9.226;2022-11-12T08:37:33;11.30;99.90
19864;DHT22;10094;48.820;9.226;2022-11-12T08:44:34;11.80;99.90
19864;DHT22;10094;48.820;9.226;2022-11-12T08:51:35;12.70;99.90
19864;DHT22;10094;48.820;9.226;2022-11-12T08:58:36;12.80;99.90
19864;DHT22;10094;48.820;9.226;2022-11-12T09:05:39;13.70;99.90
19864;DHT22;10094;48.820;9.226;2022-11-12T09:12:40;14.20;99.90
19864;DHT22;10094;48.820;9.226;2022-11-12T09:19:41;13.90;99.90
19864;DHT22;10094;48.820;9.226;2022-11-12T09:26:43;12.60;99.90
19864;DHT22;10094;48.820;9.226;2022-11-12T09:33:43;12.80;99.90
19864;DHT22;10094;48.820;9.226;2022-11-12T09:47:56;13.90;99.90
19864;DHT22;10094;48.820;9.226;2022-11-12T09:55:11;14.50;99.90
19864;DHT22;10094;48.820;9.226;2022-11-12T10:02:37;14.30;99.90
19864;DHT22;10094;48.820;9.226;2022-11-12T10:10:04;14.20;99.90
19864;DHT22;10094;48.820;9.226;2022-11-12T10:17:31;14.00;99.90
19864;DHT22;10094;48.820;9.226;2022-11-12T10:24:36;12.80;99.90
19864;DHT22;10094;48.820;9.226;2022-11-12T10:31:38;11.90;99.90
19864;DHT22;10094;48.820;9.226;2022-11-12T10:38:42;12.30;99.90
19864;DHT22;10094;48.820;9.226;2022-11-12T10:45:46;13.30;99.90
19864;DHT22;10094;48.820;9.226;2022-11-12T10:52:56;12.50;99.90
19864;DHT22;10094;48.820;9.226;2022-11-12T11:07:23;13.20;99.90
19864;DHT22;10094;48.820;9.226;2022-11-12T11:14:33;13.40;99.90
19864;DHT22;10094;48.820;9.226;2022-11-12T11:21:51;13.70;99.90
19864;DHT22;10094;48.820;9.226;2022-11-12T11:29:19;13.60;99.90
19864;DHT22;10094;48.820;9.226;2022-11-12T11:36:40;13.80;99.90
19864;DHT22;10094;48.820;9.226;2022-11-12T11:51:25;13.40;99.90
19864;DHT22;10094;48.820;9.226;2022-11-12T12:06:17;13.60;99.90
19864;DHT22;10094;48.820;9.226;2022-11-12T12:13:46;13.80;99.90
19864;DHT22;10094;48.820;9.226;2022-11-12T12:21:11;13.90;99.90
19864;DHT22;10094;48.820;9.226;2022-11-12T12:28:42;14.10;99.90
19864;DHT22;10094;48.820;9.226;2022-11-12T12:35:54;14.20;99.90
19864;DHT22;10094;48.820;9.226;2022-11-12T12:43:03;14.20;99.90
19864;DHT22;10094;48.820;9.226;2022-11-12T12:50:11;14.10;99.90
19864;DHT22;10094;48.820;9.226;2022-11-12T12:57:28;14.40;99.90
19864;DHT22;10094;48.820;9.226;2022-11-12T13:04:56;14.40;99.90
19864;DHT22;10094;48.820;9.226;2022-11-12T13:11:58;14.50;99.90
19864;DHT22;10094;48.820;9.226;2022-11-12T13:19:06;14.50;99.90
19864;DHT22;10094;48.820;9.226;2022-11-12T13:33:39;14.50;99.90
19864;DHT22;10094;48.820;9.226;2022-11-12T13:41:13;14.50;99.90
19864;DHT22;10094;48.820;9.226;2022-11-12T13:48:37;14.50;99.90
19864;DHT22;10094;48.820;9.226;2022-11-12T13:55:47;14.40;99.90
19864;DHT22;10094;48.820;9.226;2022-11-12T14:02:52;14.20;99.90
19864;DHT22;10094;48.820;9.226;2022-11-12T14:10:05;14.20;99.90
19864;DHT22;10094;48.820;9.226;2022-11-12T14:17:17;14.10;99.90
19864;DHT22;10094;48.820;9.226;2022-11-12T14:24:22;13.80;99.90
19864;DHT22;10094;48.820;9.226;2022-11-12T14:31:24;13.70;99.90
19864;DHT22;10094;48.820;9.226;2022-11-12T14:38:49;13.50;99.90
19864;DHT22;10094;48.820;9.226;2022-11-12T14:45:53;13.50;99.90
19864;DHT22;10094;48.820;9.226;2022-11-12T14:53:10;13.10;99.90
19864;DHT22;10094;48.820;9.226;2022-11-12T15:00:41;12.90;99.90
19864;DHT22;10094;48.820;9.226;2022-11-12T15:08:02;12.70;99.90
19864;DHT22;10094;48.820;9.226;2022-11-12T15:15:19;12.60;99.90
19864;DHT22;10094;48.820;9.226;2022-11-12T15:22:22;12.40;99.90
19864;DHT22;10094;48.820;9.226;2022-11-12T15:29:26;12.20;99.90
19864;DHT22;10094;48.820;9.226;2022-11-12T15:36:27;12.10;99.90
19864;DHT22;10094;48.820;9.226;2022-11-12T15:43:33;11.90;99.90
19864;DHT22;10094;48.820;9.226;2022-11-12T15:50:35;11.70;99.90
19864;DHT22;10094;48.820;9.226;2022-11-12T15:57:48;11.40;99.90
19864;DHT22;10094;48.820;9.226;2022-11-12T16:04:50;11.00;99.90
19864;DHT22;10094;48.820;9.226;2022-11-12T16:11:51;10.80;99.90
19864;DHT22;10094;48.820;9.226;2022-11-12T16:18:56;10.70;99.90
19864;DHT22;10094;48.820;9.226;2022-11-12T16:25:57;10.40;99.90
19864;DHT22;10094;48.820;9.226;2022-11-12T16:33:00;10.10;99.90
19864;DHT22;10094;48.820;9.226;2022-11-12T16:40:01;10.00;99.90
19864;DHT22;10094;48.820;9.226;2022-11-12T16:47:03;9.80;99.90
19864;DHT22;10094;48.820;9.226;2022-11-12T16:54:05;9.60;99.90
19864;DHT22;10094;48.820;9.226;2022-11-12T17:01:11;9.50;99.90
19864;DHT22;10094;48.820;9.226;2022-11-12T17:08:13;9.30;99.90
19864;DHT22;10094;48.820;9.226;2022-11-12T17:15:15;9.10;99.90
19864;DHT22;10094;48.820;9.226;2022-11-12T17:22:15;9.10;99.90
19864;DHT22;10094;48.820;9.226;2022-11-12T17:29:19;8.90;99.90
19864;DHT22;10094;48.820;9.226;2022-11-12T17:36:23;8.80;99.90
19864;DHT22;10094;48.820;9.226;2022-11-12T17:43:24;8.70;99.90
19864;DHT22;10094;48.820;9.226;2022-11-12T17:50:26;8.60;99.90
19864;DHT22;10094;48.820;9.226;2022-11-12T17:57:27;8.50;99.90
19864;DHT22;10094;48.820;9.226;2022-11-12T18:04:27;8.40;99.90
19864;DHT22;10094;48.820;9.226;2022-11-12T18:11:40;8.30;99.90
19864;DHT22;10094;48.820;9.226;2022-11-12T18:18:42;7.90;99.90
19864;DHT22;10094;48.820;9.226;2022-11-12T18:25:44;7.90;99.90
19864;DHT22;10094;48.820;9.226;2022-11-12T18:32:45;7.80;99.90
19864;DHT22;10094;48.820;9.226;2022-11-12T18:39:45;7.70;99.90
19864;DHT22;10094;48.820;9.226;2022-11-12T18:46:49;7.60;99.90
19864;DHT22;10094;48.820;9.226;2022-11-12T18:53:50;7.50;99.90
19864;DHT22;10094;48.820;9.226;2022-11-12T19:07:52;7.40;99.90
19864;DHT22;10094;48.820;9.226;2022-11-12T19:14:53;7.10;99.90
19864;DHT22;10094;48.820;9.226;2022-11-12T19:21:54;7.00;99.90
19864;DHT22;10094;48.820;9.226;2022-11-12T19:28:55;6.80;99.90
19864;DHT22;10094;48.820;9.226;2022-11-12T19:35:56;6.80;99.90
19864;DHT22;10094;48.820;9.226;2022-11-12T19:43:01;6.90;99.90
19864;DHT22;10094;48.820;9.226;2022-11-12T19:50:03;6.90;99.90
19864;DHT22;10094;48.820;9.226;2022-11-12T19:57:05;6.90;99.90
19864;DHT22;10094;48.820;9.226;2022-11-12T20:04:05;6.80;99.90
19864;DHT22;10094;48.820;9.226;2022-11-12T20:11:06;6.70;99.90
19864;DHT22;10094;48.820;9.226;2022-11-12T20:18:08;6.60;99.90
19864;DHT22;10094;48.820;9.226;2022-11-12T20:25:09;6.40;99.90
19864;DHT22;10094;48.820;9.226;2022-11-12T20:32:11;6.20;99.90
19864;DHT22;10094;48.820;9.226;2022-11-12T20:39:12;6.10;99.90
19864;DHT22;10094;48.820;9.226;2022-11-12T20:46:13;6.10;99.90
19864;DHT22;10094;48.820;9.226;2022-11-12T20:53:14;6.20;99.90
19864;DHT22;10094;48.820;9.226;2022-11-12T21:00:15;6.10;99.90
19864;DHT22;10094;48.820;9.226;2022-11-12T21:07:23;5.90;99.90
19864;DHT22;10094;48.820;9.226;2022-11-12T21:14:24;5.80;99.90
19864;DHT22;10094;48.820;9.226;2022-11-12T21:21:26;5.70;99.90
19864;DHT22;10094;48.820;9.226;2022-11-12T21:28:32;5.70;99.90
19864;DHT22;10094;48.820;9.226;2022-11-12T21:35:37;5.70;99.90
19864;DHT22;10094;48.820;9.226;2022-11-12T21:42:43;5.50;99.90
19864;DHT22;10094;48.820;9.226;2022-11-12T21:49:44;5.40;99.90
19864;DHT22;10094;48.820;9.226;2022-11-12T21:56:44;5.40;99.90
19864;DHT22;10094;48.820;9.226;2022-11-12T22:03:47;5.10;99.90
19864;DHT22;10094;48.820;9.226;2022-11-12T22:10:48;5.10;99.90
19864;DHT22;10094;48.820;9.226;2022-11-12T22:17:49;5.10;99.90
19864;DHT22;10094;48.820;9.226;2022-11-12T22:24:50;5.00;99.90
19864;DHT22;10094;48.820;9.226;2022-11-12T22:31:52;5.10;99.90
19864;DHT22;10094;48.820;9.226;2022-11-12T22:38:53;5.10;99.90
19864;DHT22;10094;48.820;9.226;2022-11-12T22:45:55;5.00;99.90
19864;DHT22;10094;48.820;9.226;2022-11-12T22:52:56;5.00;99.90
19864;DHT22;10094;48.820;9.226;2022-11-12T22:59:57;4.90;99.90
19864;DHT22;10094;48.820;9.226;2022-11-12T23:06:58;5.00;99.90
19864;DHT22;10094;48.820;9.226;2022-11-12T23:13:59;4.90;99.90
19864;DHT22;10094;48.820;9.226;2022-11-12T23:21:06;4.90;99.90
19864;DHT22;10094;48.820;9.226;2022-11-12T23:28:07;4.90;99.90
19864;DHT22;10094;48.820;9.226;2022-11-12T23:35:08;4.90;99.90
19864;DHT22;10094;48.820;9.226;2022-11-12T23:42:09;4.90;99.90
19864;DHT22;10094;48.820;9.226;2022-11-12T23:49:10;4.70;99.90
19864;DHT22;10094;48.820;9.226;2022-11-12T23:56:13;4.80;99.90
